sensor_id;sensor_type;location;lat;lon;timestamp;temperature;humidity
11095;DHT22;5601;44.490;11.400;2022-09-28T00:02:26;15.50;99.90
11095;DHT22;5601;44.490;11.400;2022-09-28T00:04:53;15.40;99.90
11095;DHT22;5601;44.490;11.400;2022-09-28T00:07:20;15.30;99.90
11095;DHT22;5601;44.490;11.400;2022-09-28T00:09:47;15.20;99.90
11095;DHT22;5601;44.490;11.400;2022-09-28T00:12:16;15.20;99.90
11095;DHT22;5601;44.490;11.400;2022-09-28T00:14:43;15.10;99.90
11095;DHT22;5601;44.490;11.400;2022-09-28T00:17:10;15.10;99.90
11095;DHT22;5601;44.490;11.400;2022-09-28T00:19:37;15.00;99.90
11095;DHT22;5601;44.490;11.400;2022-09-28T00:22:05;14.80;99.90
11095;DHT22;5601;44.490;11.400;2022-09-28T00:24:31;14.70;99.90
11095;DHT22;5601;44.490;11.400;2022-09-28T00:26:59;14.70;99.90
11095;DHT22;5601;44.490;11.400;2022-09-28T00:29:29;14.60;99.90
11095;DHT22;5601;44.490;11.400;2022-09-28T00:31:57;14.60;99.90
11095;DHT22;5601;44.490;11.400;2022-09-28T00:34:26;14.50;99.90
11095;DHT22;5601;44.490;11.400;2022-09-28T00:36:56;14.50;99.90
11095;DHT22;5601;44.490;11.400;2022-09-28T00:39:23;14.50;99.90
11095;DHT22;5601;44.490;11.400;2022-09-28T00:41:51;14.40;99.90
11095;DHT22;5601;44.490;11.400;2022-09-28T00:44:27;14.40;99.90
11095;DHT22;5601;44.490;11.400;2022-09-28T00:46:59;14.30;99.90
11095;DHT22;5601;44.490;11.400;2022-09-28T00:49:29;14.20;99.90
11095;DHT22;5601;44.490;11.400;2022-09-28T00:51:58;14.20;99.90
11095;DHT22;5601;44.490;11.400;2022-09-28T00:54:26;14.10;99.90
11095;DHT22;5601;44.490;11.400;2022-09-28T00:56:53;14.20;99.90
11095;DHT22;5601;44.490;11.400;2022-09-28T00:59:20;14.10;99.90
11095;DHT22;5601;44.490;11.400;2022-09-28T01:01:49;14.10;99.90
11095;DHT22;5601;44.490;11.400;2022-09-28T01:04:18;14.10;99.90
11095;DHT22;5601;44.490;11.400;2022-09-28T01:06:45;14.10;99.90
11095;DHT22;5601;44.490;11.400;2022-09-28T01:09:12;14.10;99.90
11095;DHT22;5601;44.490;11.400;2022-09-28T01:11:40;14.00;99.90
11095;DHT22;5601;44.490;11.400;2022-09-28T01:14:09;14.10;99.90
11095;DHT22;5601;44.490;11.400;2022-09-28T01:16:38;14.10;99.90
11095;DHT22;5601;44.490;11.400;2022-09-28T01:19:11;14.10;99.90
11095;DHT22;5601;44.490;11.400;2022-09-28T01:21:47;14.10;99.90
11095;DHT22;5601;44.490;11.400;2022-09-28T01:24:21;14.10;99.90
11095;DHT22;5601;44.490;11.400;2022-09-28T01:26:56;14.00;99.90
11095;DHT22;5601;44.490;11.400;2022-09-28T01:29:36;14.00;99.90
11095;DHT22;5601;44.490;11.400;2022-09-28T01:32:11;13.90;99.90
11095;DHT22;5601;44.490;11.400;2022-09-28T01:34:40;13.90;99.90
11095;DHT22;5601;44.490;11.400;2022-09-28T01:37:09;13.90;99.90
11095;DHT22;5601;44.490;11.400;2022-09-28T01:39:38;13.90;99.90
11095;DHT22;5601;44.490;11.400;2022-09-28T01:42:09;13.80;99.90
11095;DHT22;5601;44.490;11.400;2022-09-28T01:44:37;13.80;99.90
11095;DHT22;5601;44.490;11.400;2022-09-28T01:47:07;13.90;99.90
11095;DHT22;5601;44.490;11.400;2022-09-28T01:49:36;13.90;99.90
11095;DHT22;5601;44.490;11.400;2022-09-28T01:52:06;14.00;99.90
11095;DHT22;5601;44.490;11.400;2022-09-28T01:54:36;14.10;99.90
11095;DHT22;5601;44.490;11.400;2022-09-28T01:57:05;14.20;99.90
11095;DHT22;5601;44.490;11.400;2022-09-28T01:59:34;14.20;99.90
11095;DHT22;5601;44.490;11.400;2022-09-28T02:02:03;14.10;99.90
11095;DHT22;5601;44.490;11.400;2022-09-28T02:04:32;14.10;99.90
11095;DHT22;5601;44.490;11.400;2022-09-28T02:07:03;14.10;99.90
11095;DHT22;5601;44.490;11.400;2022-09-28T02:09:32;14.00;99.90
11095;DHT22;5601;44.490;11.400;2022-09-28T02:12:02;13.90;99.90
11095;DHT22;5601;44.490;11.400;2022-09-28T02:14:32;13.90;99.90
11095;DHT22;5601;44.490;11.400;2022-09-28T02:17:02;13.80;99.90
11095;DHT22;5601;44.490;11.400;2022-09-28T02:19:29;13.80;99.90
11095;DHT22;5601;44.490;11.400;2022-09-28T02:21:58;13.80;99.90
11095;DHT22;5601;44.490;11.400;2022-09-28T02:24:29;13.70;99.90
11095;DHT22;5601;44.490;11.400;2022-09-28T02:27:00;13.60;99.90
11095;DHT22;5601;44.490;11.400;2022-09-28T02:29:28;13.50;99.90
11095;DHT22;5601;44.490;11.400;2022-09-28T02:31:55;13.50;99.90
11095;DHT22;5601;44.490;11.400;2022-09-28T02:34:24;13.50;99.90
11095;DHT22;5601;44.490;11.400;2022-09-28T02:36:51;13.50;99.90
11095;DHT22;5601;44.490;11.400;2022-09-28T02:39:19;13.40;99.90
11095;DHT22;5601;44.490;11.400;2022-09-28T02:41:51;13.40;99.90
11095;DHT22;5601;44.490;11.400;2022-09-28T02:44:29;13.40;99.90
11095;DHT22;5601;44.490;11.400;2022-09-28T02:47:03;13.50;99.90
11095;DHT22;5601;44.490;11.400;2022-09-28T02:49:33;13.50;99.90
11095;DHT22;5601;44.490;11.400;2022-09-28T02:52:07;13.50;99.90
11095;DHT22;5601;44.490;11.400;2022-09-28T02:54:39;13.60;99.90
11095;DHT22;5601;44.490;11.400;2022-09-28T02:57:09;13.60;99.90
11095;DHT22;5601;44.490;11.400;2022-09-28T02:59:46;13.70;99.90
11095;DHT22;5601;44.490;11.400;2022-09-28T03:02:18;13.60;99.90
11095;DHT22;5601;44.490;11.400;2022-09-28T03:04:51;13.60;99.90
11095;DHT22;5601;44.490;11.400;2022-09-28T03:07:23;13.50;99.90
11095;DHT22;5601;44.490;11.400;2022-09-28T03:09:54;13.50;99.90
11095;DHT22;5601;44.490;11.400;2022-09-28T03:12:23;13.40;99.90
11095;DHT22;5601;44.490;11.400;2022-09-28T03:15:04;13.30;99.90
11095;DHT22;5601;44.490;11.400;2022-09-28T03:17:31;13.30;99.90
11095;DHT22;5601;44.490;11.400;2022-09-28T03:19:59;13.30;99.90
11095;DHT22;5601;44.490;11.400;2022-09-28T03:22:27;13.30;99.90
11095;DHT22;5601;44.490;11.400;2022-09-28T03:24:54;13.30;99.90
11095;DHT22;5601;44.490;11.400;2022-09-28T03:27:21;13.20;99.90
11095;DHT22;5601;44.490;11.400;2022-09-28T03:29:48;13.30;99.90
11095;DHT22;5601;44.490;11.400;2022-09-28T03:32:15;13.20;99.90
11095;DHT22;5601;44.490;11.400;2022-09-28T03:34:42;13.30;99.90
11095;DHT22;5601;44.490;11.400;2022-09-28T03:37:11;13.30;99.90
11095;DHT22;5601;44.490;11.400;2022-09-28T03:39:40;13.30;99.90
11095;DHT22;5601;44.490;11.400;2022-09-28T03:42:06;13.40;99.90
11095;DHT22;5601;44.490;11.400;2022-09-28T03:44:34;13.40;99.90
11095;DHT22;5601;44.490;11.400;2022-09-28T03:47:01;13.40;99.90
11095;DHT22;5601;44.490;11.400;2022-09-28T03:49:28;13.50;99.90
11095;DHT22;5601;44.490;11.400;2022-09-28T03:51:55;13.50;99.90
11095;DHT22;5601;44.490;11.400;2022-09-28T03:54:23;13.50;99.90
11095;DHT22;5601;44.490;11.400;2022-09-28T03:56:50;13.50;99.90
11095;DHT22;5601;44.490;11.400;2022-09-28T03:59:17;13.80;99.90
11095;DHT22;5601;44.490;11.400;2022-09-28T04:01:44;13.60;99.90
11095;DHT22;5601;44.490;11.400;2022-09-28T04:04:11;13.60;99.90
11095;DHT22;5601;44.490;11.400;2022-09-28T04:06:39;13.70;99.90
11095;DHT22;5601;44.490;11.400;2022-09-28T04:09:06;13.80;99.90
11095;DHT22;5601;44.490;11.400;2022-09-28T04:11:35;13.70;99.90
11095;DHT22;5601;44.490;11.400;2022-09-28T04:14:02;13.80;99.90
11095;DHT22;5601;44.490;11.400;2022-09-28T04:16:29;13.70;99.90
11095;DHT22;5601;44.490;11.400;2022-09-28T04:18:56;13.80;99.90
11095;DHT22;5601;44.490;11.400;2022-09-28T04:21:23;13.80;99.90
11095;DHT22;5601;44.490;11.400;2022-09-28T04:23:50;13.70;99.90
11095;DHT22;5601;44.490;11.400;2022-09-28T04:26:18;13.80;99.90
11095;DHT22;5601;44.490;11.400;2022-09-28T04:28:47;13.80;99.90
11095;DHT22;5601;44.490;11.400;2022-09-28T04:31:35;13.80;99.90
11095;DHT22;5601;44.490;11.400;2022-09-28T04:34:03;14.00;99.90
11095;DHT22;5601;44.490;11.400;2022-09-28T04:36:30;14.00;99.90
11095;DHT22;5601;44.490;11.400;2022-09-28T04:38:57;14.00;99.90
11095;DHT22;5601;44.490;11.400;2022-09-28T04:41:24;14.10;99.90
11095;DHT22;5601;44.490;11.400;2022-09-28T04:43:53;14.00;99.90
11095;DHT22;5601;44.490;11.400;2022-09-28T04:46:20;14.00;99.90
11095;DHT22;5601;44.490;11.400;2022-09-28T04:48:47;14.00;99.90
11095;DHT22;5601;44.490;11.400;2022-09-28T04:51:14;13.90;99.90
11095;DHT22;5601;44.490;11.400;2022-09-28T04:53:41;13.90;99.90
11095;DHT22;5601;44.490;11.400;2022-09-28T04:56:09;13.90;99.90
11095;DHT22;5601;44.490;11.400;2022-09-28T04:58:36;13.90;99.90
11095;DHT22;5601;44.490;11.400;2022-09-28T05:01:05;13.80;99.90
11095;DHT22;5601;44.490;11.400;2022-09-28T05:03:34;13.90;99.90
11095;DHT22;5601;44.490;11.400;2022-09-28T05:06:01;13.90;99.90
11095;DHT22;5601;44.490;11.400;2022-09-28T05:08:28;13.90;99.90
11095;DHT22;5601;44.490;11.400;2022-09-28T05:10:56;13.80;99.90
11095;DHT22;5601;44.490;11.400;2022-09-28T05:13:23;13.90;99.90
11095;DHT22;5601;44.490;11.400;2022-09-28T05:15:51;13.90;99.90
11095;DHT22;5601;44.490;11.400;2022-09-28T05:18:20;13.80;99.90
11095;DHT22;5601;44.490;11.400;2022-09-28T05:20:47;13.70;99.90
11095;DHT22;5601;44.490;11.400;2022-09-28T05:23:13;13.60;99.90
11095;DHT22;5601;44.490;11.400;2022-09-28T05:25:41;13.60;99.90
11095;DHT22;5601;44.490;11.400;2022-09-28T05:28:09;13.50;99.90
11095;DHT22;5601;44.490;11.400;2022-09-28T05:30:36;13.60;99.90
11095;DHT22;5601;44.490;11.400;2022-09-28T05:33:04;13.60;99.90
11095;DHT22;5601;44.490;11.400;2022-09-28T05:35:33;13.60;99.90
11095;DHT22;5601;44.490;11.400;2022-09-28T05:38:01;13.60;99.90
11095;DHT22;5601;44.490;11.400;2022-09-28T05:40:28;13.60;99.90
11095;DHT22;5601;44.490;11.400;2022-09-28T05:42:57;13.60;99.90
11095;DHT22;5601;44.490;11.400;2022-09-28T05:45:24;13.70;99.90
11095;DHT22;5601;44.490;11.400;2022-09-28T05:47:52;13.70;99.90
11095;DHT22;5601;44.490;11.400;2022-09-28T05:50:19;13.90;99.90
11095;DHT22;5601;44.490;11.400;2022-09-28T05:52:48;13.80;99.90
11095;DHT22;5601;44.490;11.400;2022-09-28T05:55:22;13.80;99.90
11095;DHT22;5601;44.490;11.400;2022-09-28T05:57:49;14.00;99.90
11095;DHT22;5601;44.490;11.400;2022-09-28T06:00:16;14.10;99.90
11095;DHT22;5601;44.490;11.400;2022-09-28T06:02:43;14.20;99.90
11095;DHT22;5601;44.490;11.400;2022-09-28T06:05:11;14.30;99.90
11095;DHT22;5601;44.490;11.400;2022-09-28T06:07:38;14.30;99.90
11095;DHT22;5601;44.490;11.400;2022-09-28T06:10:07;14.30;99.90
11095;DHT22;5601;44.490;11.400;2022-09-28T06:12:34;14.30;99.90
11095;DHT22;5601;44.490;11.400;2022-09-28T06:15:01;14.30;99.90
11095;DHT22;5601;44.490;11.400;2022-09-28T06:17:28;14.30;99.90
11095;DHT22;5601;44.490;11.400;2022-09-28T06:19:54;14.30;99.90
11095;DHT22;5601;44.490;11.400;2022-09-28T06:22:22;14.20;99.90
11095;DHT22;5601;44.490;11.400;2022-09-28T06:24:49;14.20;99.90
11095;DHT22;5601;44.490;11.400;2022-09-28T06:27:18;14.30;99.90
11095;DHT22;5601;44.490;11.400;2022-09-28T06:29:45;14.30;99.90
11095;DHT22;5601;44.490;11.400;2022-09-28T06:32:13;14.30;99.90
11095;DHT22;5601;44.490;11.400;2022-09-28T06:34:40;14.40;99.90
11095;DHT22;5601;44.490;11.400;2022-09-28T06:37:07;14.40;99.90
11095;DHT22;5601;44.490;11.400;2022-09-28T06:39:35;14.50;99.90
11095;DHT22;5601;44.490;11.400;2022-09-28T06:42:02;14.50;99.90
11095;DHT22;5601;44.490;11.400;2022-09-28T06:44:31;14.60;99.90
11095;DHT22;5601;44.490;11.400;2022-09-28T06:46:58;14.60;99.90
11095;DHT22;5601;44.490;11.400;2022-09-28T06:49:25;14.70;99.90
11095;DHT22;5601;44.490;11.400;2022-09-28T06:51:54;14.60;99.90
11095;DHT22;5601;44.490;11.400;2022-09-28T06:54:21;14.60;99.90
11095;DHT22;5601;44.490;11.400;2022-09-28T06:56:50;14.70;99.90
11095;DHT22;5601;44.490;11.400;2022-09-28T06:59:17;14.70;99.90
11095;DHT22;5601;44.490;11.400;2022-09-28T07:01:46;14.80;99.90
11095;DHT22;5601;44.490;11.400;2022-09-28T07:04:13;14.90;99.90
11095;DHT22;5601;44.490;11.400;2022-09-28T07:06:44;15.00;99.90
11095;DHT22;5601;44.490;11.400;2022-09-28T07:09:12;15.30;99.90
11095;DHT22;5601;44.490;11.400;2022-09-28T07:11:39;15.50;99.90
11095;DHT22;5601;44.490;11.400;2022-09-28T07:14:06;15.80;99.90
11095;DHT22;5601;44.490;11.400;2022-09-28T07:16:34;16.20;99.90
11095;DHT22;5601;44.490;11.400;2022-09-28T07:19:04;16.40;99.90
11095;DHT22;5601;44.490;11.400;2022-09-28T07:21:32;16.40;99.90
11095;DHT22;5601;44.490;11.400;2022-09-28T07:23:59;16.40;99.90
11095;DHT22;5601;44.490;11.400;2022-09-28T07:26:27;16.40;99.90
11095;DHT22;5601;44.490;11.400;2022-09-28T07:28:54;16.30;99.90
11095;DHT22;5601;44.490;11.400;2022-09-28T07:31:21;16.30;99.90
11095;DHT22;5601;44.490;11.400;2022-09-28T07:33:49;16.40;99.90
11095;DHT22;5601;44.490;11.400;2022-09-28T07:36:19;16.40;99.90
11095;DHT22;5601;44.490;11.400;2022-09-28T07:38:47;16.40;99.90
11095;DHT22;5601;44.490;11.400;2022-09-28T07:41:13;16.30;99.90
11095;DHT22;5601;44.490;11.400;2022-09-28T07:43:45;16.40;99.90
11095;DHT22;5601;44.490;11.400;2022-09-28T07:46:14;16.50;99.90
11095;DHT22;5601;44.490;11.400;2022-09-28T07:48:42;16.50;99.90
11095;DHT22;5601;44.490;11.400;2022-09-28T07:51:10;16.70;99.90
11095;DHT22;5601;44.490;11.400;2022-09-28T07:53:39;16.90;99.90
11095;DHT22;5601;44.490;11.400;2022-09-28T07:56:06;17.00;99.90
11095;DHT22;5601;44.490;11.400;2022-09-28T07:58:34;17.20;99.90
11095;DHT22;5601;44.490;11.400;2022-09-28T08:01:02;17.20;99.90
11095;DHT22;5601;44.490;11.400;2022-09-28T08:03:29;17.30;99.90
11095;DHT22;5601;44.490;11.400;2022-09-28T08:05:57;17.40;99.90
11095;DHT22;5601;44.490;11.400;2022-09-28T08:08:24;17.40;99.90
11095;DHT22;5601;44.490;11.400;2022-09-28T08:10:52;17.40;99.90
11095;DHT22;5601;44.490;11.400;2022-09-28T08:13:20;17.50;99.90
11095;DHT22;5601;44.490;11.400;2022-09-28T08:15:49;17.60;99.90
11095;DHT22;5601;44.490;11.400;2022-09-28T08:18:17;17.60;99.90
11095;DHT22;5601;44.490;11.400;2022-09-28T08:20:44;17.70;99.90
11095;DHT22;5601;44.490;11.400;2022-09-28T08:23:28;17.80;99.90
11095;DHT22;5601;44.490;11.400;2022-09-28T08:25:57;18.00;99.90
11095;DHT22;5601;44.490;11.400;2022-09-28T08:28:24;18.30;99.90
11095;DHT22;5601;44.490;11.400;2022-09-28T08:30:52;18.50;99.90
11095;DHT22;5601;44.490;11.400;2022-09-28T08:33:19;18.70;99.90
11095;DHT22;5601;44.490;11.400;2022-09-28T08:35:47;18.80;99.90
11095;DHT22;5601;44.490;11.400;2022-09-28T08:38:21;19.10;99.90
11095;DHT22;5601;44.490;11.400;2022-09-28T08:40:50;19.30;99.90
11095;DHT22;5601;44.490;11.400;2022-09-28T08:43:25;19.70;99.90
11095;DHT22;5601;44.490;11.400;2022-09-28T08:45:55;19.70;99.90
11095;DHT22;5601;44.490;11.400;2022-09-28T08:48:24;19.60;99.90
11095;DHT22;5601;44.490;11.400;2022-09-28T08:51:13;19.60;99.90
11095;DHT22;5601;44.490;11.400;2022-09-28T08:53:41;19.80;99.90
11095;DHT22;5601;44.490;11.400;2022-09-28T08:56:10;20.00;99.90
11095;DHT22;5601;44.490;11.400;2022-09-28T08:58:41;20.00;99.90
11095;DHT22;5601;44.490;11.400;2022-09-28T09:01:10;20.10;99.90
11095;DHT22;5601;44.490;11.400;2022-09-28T09:03:40;20.00;99.90
11095;DHT22;5601;44.490;11.400;2022-09-28T09:06:12;19.90;99.90
11095;DHT22;5601;44.490;11.400;2022-09-28T09:08:44;19.70;99.90
11095;DHT22;5601;44.490;11.400;2022-09-28T09:11:17;19.50;99.90
11095;DHT22;5601;44.490;11.400;2022-09-28T09:13:53;19.10;99.90
11095;DHT22;5601;44.490;11.400;2022-09-28T09:16:26;19.10;99.90
11095;DHT22;5601;44.490;11.400;2022-09-28T09:18:59;19.30;99.90
11095;DHT22;5601;44.490;11.400;2022-09-28T09:21:37;19.40;99.90
11095;DHT22;5601;44.490;11.400;2022-09-28T09:24:09;19.50;99.90
11095;DHT22;5601;44.490;11.400;2022-09-28T09:26:41;19.60;99.90
11095;DHT22;5601;44.490;11.400;2022-09-28T09:29:15;19.80;99.90
11095;DHT22;5601;44.490;11.400;2022-09-28T09:31:54;20.10;99.90
11095;DHT22;5601;44.490;11.400;2022-09-28T09:37:19;20.40;99.90
11095;DHT22;5601;44.490;11.400;2022-09-28T09:39:56;20.50;99.90
11095;DHT22;5601;44.490;11.400;2022-09-28T09:42:31;20.70;99.90
11095;DHT22;5601;44.490;11.400;2022-09-28T09:45:12;20.50;99.90
11095;DHT22;5601;44.490;11.400;2022-09-28T09:47:42;20.50;99.90
11095;DHT22;5601;44.490;11.400;2022-09-28T09:50:10;20.70;99.90
11095;DHT22;5601;44.490;11.400;2022-09-28T09:52:42;21.00;99.90
11095;DHT22;5601;44.490;11.400;2022-09-28T09:55:13;21.00;99.90
11095;DHT22;5601;44.490;11.400;2022-09-28T09:57:43;20.80;99.90
11095;DHT22;5601;44.490;11.400;2022-09-28T10:00:14;20.80;99.90
11095;DHT22;5601;44.490;11.400;2022-09-28T10:02:41;20.90;99.90
11095;DHT22;5601;44.490;11.400;2022-09-28T10:05:15;21.00;99.90
11095;DHT22;5601;44.490;11.400;2022-09-28T10:07:44;21.00;99.90
11095;DHT22;5601;44.490;11.400;2022-09-28T10:10:14;21.20;99.90
11095;DHT22;5601;44.490;11.400;2022-09-28T10:12:44;21.30;99.90
11095;DHT22;5601;44.490;11.400;2022-09-28T10:15:15;21.20;99.90
11095;DHT22;5601;44.490;11.400;2022-09-28T10:17:43;21.20;99.90
11095;DHT22;5601;44.490;11.400;2022-09-28T10:20:10;21.40;99.90
11095;DHT22;5601;44.490;11.400;2022-09-28T10:22:37;21.60;99.90
11095;DHT22;5601;44.490;11.400;2022-09-28T10:25:05;22.10;99.90
11095;DHT22;5601;44.490;11.400;2022-09-28T10:27:34;22.20;99.90
11095;DHT22;5601;44.490;11.400;2022-09-28T10:30:02;22.50;99.90
11095;DHT22;5601;44.490;11.400;2022-09-28T10:32:41;22.70;99.90
11095;DHT22;5601;44.490;11.400;2022-09-28T10:37:55;22.50;99.90
11095;DHT22;5601;44.490;11.400;2022-09-28T10:40:28;22.70;99.90
11095;DHT22;5601;44.490;11.400;2022-09-28T10:43:01;22.90;99.90
11095;DHT22;5601;44.490;11.400;2022-09-28T10:45:32;23.20;99.90
11095;DHT22;5601;44.490;11.400;2022-09-28T10:48:12;23.40;99.90
11095;DHT22;5601;44.490;11.400;2022-09-28T10:50:41;23.40;99.90
11095;DHT22;5601;44.490;11.400;2022-09-28T10:53:10;23.40;99.90
11095;DHT22;5601;44.490;11.400;2022-09-28T10:55:37;23.40;99.90
11095;DHT22;5601;44.490;11.400;2022-09-28T11:00:47;23.10;99.90
11095;DHT22;5601;44.490;11.400;2022-09-28T11:03:18;22.80;99.90
11095;DHT22;5601;44.490;11.400;2022-09-28T11:05:52;22.90;99.90
11095;DHT22;5601;44.490;11.400;2022-09-28T11:08:21;23.00;99.90
11095;DHT22;5601;44.490;11.400;2022-09-28T11:10:59;23.10;99.90
11095;DHT22;5601;44.490;11.400;2022-09-28T11:13:28;23.00;99.90
11095;DHT22;5601;44.490;11.400;2022-09-28T11:15:58;22.80;99.90
11095;DHT22;5601;44.490;11.400;2022-09-28T11:18:27;22.60;99.90
11095;DHT22;5601;44.490;11.400;2022-09-28T11:21:06;22.60;99.90
11095;DHT22;5601;44.490;11.400;2022-09-28T11:23:33;22.50;99.90
11095;DHT22;5601;44.490;11.400;2022-09-28T11:26:01;22.40;99.90
11095;DHT22;5601;44.490;11.400;2022-09-28T11:28:30;22.30;99.90
11095;DHT22;5601;44.490;11.400;2022-09-28T11:30:58;22.50;99.90
11095;DHT22;5601;44.490;11.400;2022-09-28T11:33:33;22.70;99.90
11095;DHT22;5601;44.490;11.400;2022-09-28T11:36:08;22.80;99.90
11095;DHT22;5601;44.490;11.400;2022-09-28T11:38:40;23.10;99.90
11095;DHT22;5601;44.490;11.400;2022-09-28T11:41:15;23.20;99.90
11095;DHT22;5601;44.490;11.400;2022-09-28T11:43:49;23.30;99.90
11095;DHT22;5601;44.490;11.400;2022-09-28T11:46:20;23.40;99.90
11095;DHT22;5601;44.490;11.400;2022-09-28T11:48:53;23.50;99.90
11095;DHT22;5601;44.490;11.400;2022-09-28T11:51:22;23.50;99.90
11095;DHT22;5601;44.490;11.400;2022-09-28T11:53:51;23.50;99.90
11095;DHT22;5601;44.490;11.400;2022-09-28T11:56:24;23.60;99.90
11095;DHT22;5601;44.490;11.400;2022-09-28T11:58:56;23.70;99.90
11095;DHT22;5601;44.490;11.400;2022-09-28T12:01:26;23.80;99.90
11095;DHT22;5601;44.490;11.400;2022-09-28T12:03:56;23.70;99.90
11095;DHT22;5601;44.490;11.400;2022-09-28T12:06:28;23.60;99.90
11095;DHT22;5601;44.490;11.400;2022-09-28T12:08:59;23.60;99.90
11095;DHT22;5601;44.490;11.400;2022-09-28T12:11:32;23.80;99.90
11095;DHT22;5601;44.490;11.400;2022-09-28T12:14:01;23.90;99.90
11095;DHT22;5601;44.490;11.400;2022-09-28T12:16:31;23.70;99.90
11095;DHT22;5601;44.490;11.400;2022-09-28T12:19:03;23.40;99.90
11095;DHT22;5601;44.490;11.400;2022-09-28T12:21:33;23.50;99.90
11095;DHT22;5601;44.490;11.400;2022-09-28T12:24:04;23.60;99.90
11095;DHT22;5601;44.490;11.400;2022-09-28T12:26:33;23.90;99.90
11095;DHT22;5601;44.490;11.400;2022-09-28T12:29:01;23.90;99.90
11095;DHT22;5601;44.490;11.400;2022-09-28T12:31:33;23.80;99.90
11095;DHT22;5601;44.490;11.400;2022-09-28T12:34:02;23.60;99.90
11095;DHT22;5601;44.490;11.400;2022-09-28T12:36:33;23.50;99.90
11095;DHT22;5601;44.490;11.400;2022-09-28T12:39:09;23.20;99.90
11095;DHT22;5601;44.490;11.400;2022-09-28T12:41:42;23.00;99.90
11095;DHT22;5601;44.490;11.400;2022-09-28T18:35:29;20.30;99.90
11095;DHT22;5601;44.490;11.400;2022-09-28T18:37:56;20.20;99.90
11095;DHT22;5601;44.490;11.400;2022-09-28T18:40:26;20.20;99.90
11095;DHT22;5601;44.490;11.400;2022-09-28T18:42:53;20.30;99.90
11095;DHT22;5601;44.490;11.400;2022-09-28T18:45:20;20.30;99.90
11095;DHT22;5601;44.490;11.400;2022-09-28T18:47:51;20.40;99.90
11095;DHT22;5601;44.490;11.400;2022-09-28T18:50:18;20.40;99.90
11095;DHT22;5601;44.490;11.400;2022-09-28T18:52:49;20.40;99.90
11095;DHT22;5601;44.490;11.400;2022-09-28T18:55:18;20.30;99.90
11095;DHT22;5601;44.490;11.400;2022-09-28T18:57:45;20.30;99.90
11095;DHT22;5601;44.490;11.400;2022-09-28T19:00:13;20.40;99.90
11095;DHT22;5601;44.490;11.400;2022-09-28T19:02:40;20.40;99.90
11095;DHT22;5601;44.490;11.400;2022-09-28T19:05:07;20.30;99.90
11095;DHT22;5601;44.490;11.400;2022-09-28T19:07:38;20.30;99.90
11095;DHT22;5601;44.490;11.400;2022-09-28T19:10:09;20.30;99.90
11095;DHT22;5601;44.490;11.400;2022-09-28T19:12:38;20.40;99.90
11095;DHT22;5601;44.490;11.400;2022-09-28T19:15:08;20.40;99.90
11095;DHT22;5601;44.490;11.400;2022-09-28T19:17:35;20.40;99.90
11095;DHT22;5601;44.490;11.400;2022-09-28T19:20:05;20.30;99.90
11095;DHT22;5601;44.490;11.400;2022-09-28T19:22:32;20.30;99.90
11095;DHT22;5601;44.490;11.400;2022-09-28T19:25:01;20.30;99.90
11095;DHT22;5601;44.490;11.400;2022-09-28T19:27:29;20.20;99.90
11095;DHT22;5601;44.490;11.400;2022-09-28T19:29:56;20.10;99.90
11095;DHT22;5601;44.490;11.400;2022-09-28T19:32:23;20.10;99.90
11095;DHT22;5601;44.490;11.400;2022-09-28T19:34:53;20.00;99.90
11095;DHT22;5601;44.490;11.400;2022-09-28T19:37:22;20.00;99.90
11095;DHT22;5601;44.490;11.400;2022-09-28T19:39:49;20.00;99.90
11095;DHT22;5601;44.490;11.400;2022-09-28T19:42:19;19.90;99.90
11095;DHT22;5601;44.490;11.400;2022-09-28T19:44:50;19.90;99.90
11095;DHT22;5601;44.490;11.400;2022-09-28T19:47:20;19.90;99.90
11095;DHT22;5601;44.490;11.400;2022-09-28T19:49:47;19.90;99.90
11095;DHT22;5601;44.490;11.400;2022-09-28T19:52:15;19.80;99.90
11095;DHT22;5601;44.490;11.400;2022-09-28T19:54:44;19.80;99.90
11095;DHT22;5601;44.490;11.400;2022-09-28T19:57:19;19.80;99.90
11095;DHT22;5601;44.490;11.400;2022-09-28T19:59:47;19.90;99.90
11095;DHT22;5601;44.490;11.400;2022-09-28T20:02:20;19.90;99.90
11095;DHT22;5601;44.490;11.400;2022-09-28T20:04:48;19.90;99.90
11095;DHT22;5601;44.490;11.400;2022-09-28T20:07:17;19.90;99.90
11095;DHT22;5601;44.490;11.400;2022-09-28T20:09:46;19.80;99.90
11095;DHT22;5601;44.490;11.400;2022-09-28T20:12:13;19.80;99.90
11095;DHT22;5601;44.490;11.400;2022-09-28T20:14:41;19.70;99.90
11095;DHT22;5601;44.490;11.400;2022-09-28T20:17:08;19.70;99.90
11095;DHT22;5601;44.490;11.400;2022-09-28T20:19:37;19.60;99.90
11095;DHT22;5601;44.490;11.400;2022-09-28T20:22:04;19.50;99.90
11095;DHT22;5601;44.490;11.400;2022-09-28T20:24:31;19.50;99.90
11095;DHT22;5601;44.490;11.400;2022-09-28T20:27:01;19.40;99.90
11095;DHT22;5601;44.490;11.400;2022-09-28T20:29:30;19.40;99.90
11095;DHT22;5601;44.490;11.400;2022-09-28T20:31:59;19.30;99.90
11095;DHT22;5601;44.490;11.400;2022-09-28T20:34:26;19.30;99.90
11095;DHT22;5601;44.490;11.400;2022-09-28T20:36:56;19.30;99.90
11095;DHT22;5601;44.490;11.400;2022-09-28T20:39:24;19.30;99.90
11095;DHT22;5601;44.490;11.400;2022-09-28T20:41:51;19.30;99.90
11095;DHT22;5601;44.490;11.400;2022-09-28T20:44:22;19.30;99.90
11095;DHT22;5601;44.490;11.400;2022-09-28T20:46:49;19.20;99.90
11095;DHT22;5601;44.490;11.400;2022-09-28T20:49:18;19.20;99.90
11095;DHT22;5601;44.490;11.400;2022-09-28T20:51:46;19.30;99.90
11095;DHT22;5601;44.490;11.400;2022-09-28T20:54:15;19.30;99.90
11095;DHT22;5601;44.490;11.400;2022-09-28T20:56:44;19.30;99.90
11095;DHT22;5601;44.490;11.400;2022-09-28T20:59:14;19.30;99.90
11095;DHT22;5601;44.490;11.400;2022-09-28T21:01:42;19.30;99.90
11095;DHT22;5601;44.490;11.400;2022-09-28T21:04:11;19.30;99.90
11095;DHT22;5601;44.490;11.400;2022-09-28T21:06:39;19.30;99.90
11095;DHT22;5601;44.490;11.400;2022-09-28T21:09:10;19.30;99.90
11095;DHT22;5601;44.490;11.400;2022-09-28T21:11:41;19.20;99.90
11095;DHT22;5601;44.490;11.400;2022-09-28T21:14:09;19.20;99.90
11095;DHT22;5601;44.490;11.400;2022-09-28T21:16:36;19.20;99.90
11095;DHT22;5601;44.490;11.400;2022-09-28T21:19:04;19.30;99.90
11095;DHT22;5601;44.490;11.400;2022-09-28T21:21:32;19.30;99.90
11095;DHT22;5601;44.490;11.400;2022-09-28T21:23:59;19.30;99.90
11095;DHT22;5601;44.490;11.400;2022-09-28T21:26:27;19.40;99.90
11095;DHT22;5601;44.490;11.400;2022-09-28T21:28:58;19.40;99.90
11095;DHT22;5601;44.490;11.400;2022-09-28T21:31:27;19.50;99.90
11095;DHT22;5601;44.490;11.400;2022-09-28T21:33:58;19.70;99.90
11095;DHT22;5601;44.490;11.400;2022-09-28T21:36:26;19.70;99.90
11095;DHT22;5601;44.490;11.400;2022-09-28T21:38:55;19.70;99.90
11095;DHT22;5601;44.490;11.400;2022-09-28T21:41:22;19.70;99.90
11095;DHT22;5601;44.490;11.400;2022-09-28T21:43:54;19.70;99.90